createdAt,value
2017-08-24T00:00:05.245Z,7.60
2017-08-24T00:02:33.611Z,8.10
2017-08-24T00:05:02.134Z,7.50
2017-08-24T00:07:30.545Z,7.97
2017-08-24T00:09:58.933Z,8.20
2017-08-24T00:12:27.284Z,7.47
2017-08-24T00:14:55.716Z,6.50
2017-08-24T00:17:24.023Z,8.17
2017-08-24T00:19:52.479Z,6.43
2017-08-24T00:22:20.837Z,7.10
2017-08-24T00:24:49.269Z,7.30
2017-08-24T00:27:17.608Z,6.43
2017-08-24T00:29:46.228Z,7.00
2017-08-24T00:32:14.772Z,5.77
2017-08-24T00:34:43.143Z,5.03
2017-08-24T00:37:11.585Z,6.50
2017-08-24T00:39:40.033Z,6.90
2017-08-24T00:42:08.413Z,5.87
2017-08-24T00:44:38.049Z,6.47
2017-08-24T00:47:06.501Z,7.77
2017-08-24T00:49:34.838Z,5.77
2017-08-24T00:52:03.265Z,7.10
2017-08-24T00:54:31.581Z,6.20
2017-08-24T00:56:59.943Z,6.50
2017-08-24T00:59:29.237Z,5.63
2017-08-24T01:01:57.915Z,7.10
2017-08-24T01:04:26.232Z,6.47
2017-08-24T01:06:56.301Z,7.07
2017-08-24T01:09:24.672Z,5.80
2017-08-24T01:11:52.991Z,7.13
2017-08-24T01:14:21.517Z,6.10
2017-08-24T01:16:49.864Z,6.80
2017-08-24T01:19:18.188Z,6.13
2017-08-24T01:21:46.572Z,6.37
2017-08-24T01:24:14.949Z,6.60
2017-08-24T01:26:43.418Z,6.43
2017-08-24T01:29:11.816Z,7.40
2017-08-24T01:31:40.332Z,7.00
2017-08-24T01:34:08.852Z,6.03
2017-08-24T01:36:37.283Z,6.63
2017-08-24T01:39:05.734Z,6.17
2017-08-24T01:41:34.114Z,6.37
2017-08-24T01:44:02.405Z,6.80
2017-08-24T01:46:31.114Z,6.70
2017-08-24T01:48:59.623Z,6.60
2017-08-24T01:51:27.955Z,6.83
2017-08-24T01:53:56.295Z,6.23
2017-08-24T01:56:24.704Z,7.37
2017-08-24T01:58:53.137Z,7.00
2017-08-24T02:01:21.468Z,6.90
2017-08-24T02:03:49.888Z,5.70
2017-08-24T02:06:18.268Z,6.80
2017-08-24T02:08:47.145Z,6.73
2017-08-24T02:11:15.848Z,6.40
2017-08-24T02:13:44.318Z,6.60
2017-08-24T02:16:14.064Z,7.10
2017-08-24T02:18:42.483Z,6.50
2017-08-24T02:21:11.056Z,6.07
2017-08-24T02:23:39.414Z,6.20
2017-08-24T02:26:07.717Z,6.53
2017-08-24T02:28:36.121Z,6.33
2017-08-24T02:31:04.473Z,6.67
2017-08-24T02:33:32.812Z,5.13
2017-08-24T02:36:01.580Z,5.50
2017-08-24T02:38:29.928Z,6.00
2017-08-24T02:40:58.489Z,5.40
2017-08-24T02:43:26.884Z,6.43
2017-08-24T02:45:55.270Z,6.13
2017-08-24T02:48:23.793Z,6.20
2017-08-24T02:50:52.128Z,5.33
2017-08-24T02:53:20.623Z,6.53
2017-08-24T02:55:48.937Z,5.90
2017-08-24T02:58:17.277Z,6.40
2017-08-24T03:00:45.665Z,6.87
2017-08-24T03:03:13.977Z,6.87
2017-08-24T03:05:42.355Z,6.10
2017-08-24T03:08:10.702Z,6.20
2017-08-24T03:10:39.139Z,7.00
2017-08-24T03:13:07.534Z,6.23
2017-08-24T03:15:35.884Z,7.23
2017-08-24T03:18:04.345Z,6.77
2017-08-24T03:20:32.650Z,6.30
2017-08-24T03:23:01.064Z,7.43
2017-08-24T03:25:29.392Z,6.53
2017-08-24T03:27:57.701Z,7.57
2017-08-24T03:30:26.082Z,6.27
2017-08-24T03:32:54.608Z,6.27
2017-08-24T03:35:22.994Z,5.83
2017-08-24T03:37:51.384Z,6.00
2017-08-24T03:40:19.691Z,5.87
2017-08-24T03:42:48.056Z,6.50
2017-08-24T03:45:16.401Z,6.80
2017-08-24T03:47:44.708Z,5.80
2017-08-24T03:50:13.112Z,6.80
2017-08-24T03:52:41.484Z,6.57
2017-08-24T03:55:10.219Z,5.67
2017-08-24T03:57:39.722Z,5.73
2017-08-24T04:00:08.050Z,5.60
2017-08-24T04:02:36.492Z,6.73
2017-08-24T04:05:04.813Z,5.63
2017-08-24T04:07:33.230Z,5.07
2017-08-24T04:10:01.838Z,5.73
2017-08-24T04:12:30.177Z,6.70
2017-08-24T04:14:58.597Z,6.47
2017-08-24T04:17:26.962Z,6.77
2017-08-24T04:19:55.426Z,6.90
2017-08-24T04:22:23.778Z,5.50
2017-08-24T04:24:52.110Z,5.43
2017-08-24T04:27:20.458Z,6.07
2017-08-24T04:29:48.795Z,5.87
2017-08-24T04:32:17.259Z,6.40
2017-08-24T04:34:45.662Z,6.70
2017-08-24T04:37:14.070Z,6.60
2017-08-24T04:39:42.598Z,5.47
2017-08-24T04:42:11.865Z,5.13
2017-08-24T04:44:40.301Z,5.07
2017-08-24T04:47:08.656Z,6.20
2017-08-24T04:49:37.049Z,5.50
2017-08-24T04:52:05.527Z,4.77
2017-08-24T04:54:33.964Z,5.53
2017-08-24T04:57:02.577Z,5.40
2017-08-24T04:59:30.927Z,5.50
2017-08-24T05:01:59.881Z,5.20
2017-08-24T05:04:34.390Z,5.83
2017-08-24T05:07:03.530Z,5.60
2017-08-24T05:09:31.914Z,5.67
2017-08-24T05:12:00.313Z,4.77
2017-08-24T05:14:28.793Z,5.90
2017-08-24T05:16:57.180Z,5.73
2017-08-24T05:19:25.611Z,5.80
2017-08-24T05:21:54.060Z,5.20
2017-08-24T05:24:22.526Z,5.93
2017-08-24T05:26:50.861Z,6.47
2017-08-24T05:29:19.237Z,5.90
2017-08-24T05:31:47.878Z,4.60
2017-08-24T05:34:16.524Z,4.70
2017-08-24T05:36:44.904Z,5.47
2017-08-24T05:39:13.375Z,6.33
2017-08-24T05:41:41.926Z,5.00
2017-08-24T05:44:10.871Z,5.27
2017-08-24T05:46:39.729Z,4.60
2017-08-24T05:49:08.450Z,4.90
2017-08-24T05:51:38.637Z,5.07
2017-08-24T05:54:07.292Z,5.47
2017-08-24T05:56:35.930Z,5.23
2017-08-24T05:59:04.331Z,5.20
2017-08-24T06:01:32.797Z,5.50
2017-08-24T06:04:01.304Z,5.00
2017-08-24T06:06:31.153Z,6.27
2017-08-24T06:08:59.638Z,4.87
2017-08-24T06:11:28.993Z,5.40
2017-08-24T06:13:57.743Z,4.93
2017-08-24T06:16:26.624Z,4.90
2017-08-24T06:18:55.157Z,5.20
2017-08-24T06:21:23.809Z,4.47
2017-08-24T06:26:27.408Z,4.17
2017-08-24T06:28:56.120Z,4.43
2017-08-24T06:31:24.551Z,3.70
2017-08-24T06:33:53.009Z,4.00
2017-08-24T06:36:21.378Z,3.80
2017-08-24T06:38:49.727Z,4.50
2017-08-24T06:41:19.357Z,4.13
2017-08-24T06:43:48.020Z,4.23
2017-08-24T06:46:16.622Z,4.13
2017-08-24T06:48:45.004Z,4.67
2017-08-24T06:51:14.397Z,4.00
2017-08-24T06:53:43.397Z,5.33
2017-08-24T06:56:11.975Z,3.97
2017-08-24T06:58:41.559Z,5.03
2017-08-24T07:01:10.477Z,4.27
2017-08-24T07:03:39.625Z,4.57
2017-08-24T07:06:08.595Z,4.10
2017-08-24T07:08:37.374Z,4.10
2017-08-24T07:11:06.229Z,4.37
2017-08-24T07:13:34.926Z,4.23
2017-08-24T07:16:03.512Z,3.90
2017-08-24T07:18:31.935Z,4.07
2017-08-24T07:21:02.507Z,3.70
2017-08-24T07:23:31.024Z,4.33
2017-08-24T07:25:59.691Z,4.60
2017-08-24T07:28:28.124Z,4.03
2017-08-24T07:30:56.507Z,4.70
2017-08-24T07:33:25.008Z,4.30
2017-08-24T07:35:53.570Z,4.90
2017-08-24T07:38:21.964Z,3.97
2017-08-24T07:40:50.443Z,4.17
2017-08-24T07:43:18.859Z,4.80
2017-08-24T07:45:47.594Z,3.47
2017-08-24T07:48:16.631Z,4.40
2017-08-24T07:50:47.159Z,6.10
2017-08-24T07:53:15.626Z,4.23
2017-08-24T07:55:44.001Z,3.80
2017-08-24T07:58:12.523Z,4.73
2017-08-24T08:00:41.144Z,5.03
2017-08-24T08:03:09.551Z,4.53
2017-08-24T08:05:40.081Z,9.23
2017-08-24T08:08:08.699Z,14.17
2017-08-24T08:10:37.049Z,6.27
2017-08-24T08:13:05.502Z,5.73
2017-08-24T08:15:33.887Z,4.83
2017-08-24T08:18:02.236Z,3.80
2017-08-24T08:20:30.779Z,5.00
2017-08-24T08:22:59.224Z,4.80
2017-08-24T08:25:27.630Z,4.50
2017-08-24T08:27:56.216Z,4.40
2017-08-24T08:30:24.576Z,4.60
2017-08-24T08:32:52.951Z,5.30
2017-08-24T08:35:21.434Z,4.63
2017-08-24T08:37:49.975Z,6.90
2017-08-24T08:40:18.672Z,6.47
2017-08-24T08:42:47.078Z,4.60
2017-08-24T08:45:15.677Z,7.37
2017-08-24T08:47:44.180Z,5.27
2017-08-24T08:50:13.334Z,5.17
2017-08-24T08:52:41.994Z,4.73
2017-08-24T08:55:10.546Z,4.07
2017-08-24T08:57:39.247Z,6.00
2017-08-24T09:00:07.696Z,17.43
2017-08-24T09:02:36.253Z,6.90
2017-08-24T09:05:04.860Z,5.60
2017-08-24T09:07:33.859Z,5.20
2017-08-24T09:10:02.889Z,9.27
2017-08-24T09:12:31.276Z,11.60
2017-08-24T09:17:34.496Z,5.47
2017-08-24T09:22:39.683Z,7.47
2017-08-24T09:25:08.040Z,5.47
2017-08-24T09:27:36.552Z,11.50
2017-08-24T09:30:05.659Z,7.63
2017-08-24T09:32:34.096Z,10.87
2017-08-24T09:35:02.467Z,6.67
2017-08-24T09:37:31.693Z,8.93
2017-08-24T09:40:00.925Z,15.23
2017-08-24T09:42:29.497Z,5.60
2017-08-24T09:44:58.534Z,5.60
2017-08-24T09:47:27.231Z,5.27
2017-08-24T09:49:58.786Z,15.27
2017-08-24T09:52:27.744Z,7.50
2017-08-24T09:54:57.077Z,6.03
2017-08-24T10:00:10.567Z,12.50
2017-08-24T10:02:39.619Z,5.70
2017-08-24T10:10:18.356Z,5.27
2017-08-24T10:12:48.761Z,6.80
2017-08-24T10:15:17.385Z,4.70
2017-08-24T10:22:56.289Z,13.73
2017-08-24T10:28:14.258Z,6.10
2017-08-24T10:30:43.303Z,6.90
2017-08-24T10:33:11.842Z,7.20
2017-08-24T10:40:53.145Z,8.57
2017-08-24T10:43:22.606Z,6.87
2017-08-24T10:45:51.042Z,5.53
2017-08-24T10:48:20.490Z,9.33
2017-08-24T10:50:48.919Z,6.50
2017-08-24T10:53:20.815Z,7.13
2017-08-24T10:55:50.377Z,6.17
2017-08-24T11:06:35.919Z,6.23
2017-08-24T11:09:04.519Z,5.90
2017-08-24T11:14:06.429Z,11.40
2017-08-24T11:16:35.119Z,11.10
2017-08-24T11:19:03.741Z,8.27
2017-08-24T11:21:32.745Z,8.60
2017-08-24T11:24:02.303Z,7.40
2017-08-24T11:26:39.421Z,11.67
2017-08-24T11:29:09.906Z,10.30
2017-08-24T11:31:38.431Z,14.83
2017-08-24T11:34:07.954Z,6.93
2017-08-24T11:36:36.448Z,8.10
2017-08-24T11:39:05.189Z,5.50
2017-08-24T11:41:33.790Z,6.53
2017-08-24T11:44:03.037Z,5.80
2017-08-24T11:46:32.065Z,6.60
2017-08-24T11:51:53.893Z,7.37
2017-08-24T12:22:00.782Z,7.47
2017-08-24T12:27:02.041Z,6.27
2017-08-24T12:29:30.393Z,12.27
2017-08-24T12:31:59.678Z,7.90
2017-08-24T12:34:28.339Z,9.30
2017-08-24T12:36:57.058Z,6.40
2017-08-24T12:39:26.558Z,6.67
2017-08-24T12:42:02.700Z,8.23
2017-08-24T12:44:31.358Z,6.97
2017-08-24T12:47:00.024Z,7.40
2017-08-24T12:49:28.771Z,9.50
2017-08-24T12:54:33.524Z,10.63
2017-08-24T12:57:02.226Z,6.93
2017-08-24T13:02:11.175Z,5.90
2017-08-24T13:08:01.124Z,5.63
2017-08-24T13:16:34.375Z,4.83
2017-08-24T13:24:10.040Z,5.53
2017-08-24T13:29:12.475Z,4.53
2017-08-24T13:31:41.277Z,5.13
2017-08-24T13:34:10.273Z,6.20
2017-08-24T13:36:39.752Z,4.63
2017-08-24T13:49:25.693Z,4.77
2017-08-24T14:00:10.673Z,3.90
2017-08-24T14:02:43.019Z,4.30
2017-08-24T14:05:12.932Z,4.20
2017-08-24T14:07:41.690Z,4.13
2017-08-24T14:10:10.576Z,4.20
2017-08-24T14:12:40.066Z,4.20
2017-08-24T14:15:10.158Z,4.30
2017-08-24T14:17:39.229Z,4.23
2017-08-24T14:20:08.103Z,3.80
2017-08-24T14:22:36.644Z,4.00
2017-08-24T14:27:38.044Z,3.33
2017-08-24T14:32:41.685Z,4.33
2017-08-24T14:37:46.550Z,3.73
2017-08-24T14:40:15.385Z,4.33
2017-08-24T14:45:19.390Z,5.37
2017-08-24T14:47:50.150Z,3.83
2017-08-24T14:50:18.874Z,4.70
2017-08-24T14:58:05.206Z,5.20
2017-08-24T15:00:33.805Z,4.77
2017-08-24T15:03:02.475Z,4.17
2017-08-24T15:05:32.386Z,4.90
2017-08-24T15:08:01.168Z,4.30
2017-08-24T15:15:35.481Z,4.20
2017-08-24T15:18:04.441Z,3.50
2017-08-24T15:25:42.655Z,4.50
2017-08-24T15:30:55.271Z,4.20
2017-08-24T15:35:56.949Z,5.20
2017-08-24T15:38:25.349Z,5.13
2017-08-24T15:41:02.696Z,4.77
2017-08-24T15:51:22.182Z,5.20
2017-08-24T15:53:50.765Z,4.93
2017-08-24T15:56:21.400Z,5.63
2017-08-24T15:58:50.586Z,5.07
2017-08-24T16:01:19.960Z,5.43
2017-08-24T16:03:51.478Z,6.37
2017-08-24T16:06:20.231Z,5.23
2017-08-24T16:08:49.013Z,5.43
2017-08-24T16:11:17.622Z,5.10
2017-08-24T16:13:54.430Z,5.43
2017-08-24T16:42:30.625Z,7.00
2017-08-24T16:48:06.184Z,6.03
2017-08-24T16:50:35.031Z,6.37
2017-08-24T16:53:22.661Z,6.37
2017-08-24T16:55:53.349Z,6.73
2017-08-24T17:04:34.477Z,7.03
2017-08-24T17:19:26.569Z,9.40
2017-08-24T17:21:55.503Z,6.87
2017-08-24T17:33:16.745Z,8.23
2017-08-24T17:35:45.823Z,10.50
2017-08-24T17:38:16.251Z,7.97
2017-08-24T17:40:59.030Z,9.10
2017-08-24T17:43:27.706Z,8.83
2017-08-24T17:45:56.834Z,9.50
2017-08-24T17:48:25.798Z,9.10
2017-08-24T17:50:58.075Z,11.00
2017-08-24T17:53:26.466Z,8.70
2017-08-24T17:55:56.376Z,9.60
2017-08-24T18:00:58.234Z,7.37
2017-08-24T18:03:26.734Z,9.30
2017-08-24T18:05:59.812Z,10.07
2017-08-24T18:08:29.496Z,8.77
2017-08-24T18:10:58.007Z,7.73
2017-08-24T18:13:26.605Z,8.20
2017-08-24T18:15:55.801Z,7.47
2017-08-24T18:18:25.297Z,6.95
2017-08-24T18:20:53.981Z,6.70
2017-08-24T18:23:23.422Z,7.87
2017-08-24T18:25:52.039Z,7.67
2017-08-24T18:28:20.638Z,7.93
2017-08-24T18:30:49.114Z,8.40
2017-08-24T18:33:19.284Z,7.67
2017-08-24T18:35:47.742Z,8.60
2017-08-24T18:38:16.409Z,7.90
2017-08-24T18:40:45.735Z,7.93
2017-08-24T18:43:14.279Z,7.67
2017-08-24T18:45:42.752Z,5.60
2017-08-24T18:48:11.361Z,4.77
2017-08-24T18:53:13.060Z,4.20
2017-08-24T18:55:41.637Z,4.87
2017-08-24T18:58:10.356Z,4.43
2017-08-24T19:00:38.954Z,5.00
2017-08-24T19:03:07.530Z,3.90
2017-08-24T19:05:36.143Z,3.60
2017-08-24T19:08:05.577Z,3.60
2017-08-24T19:10:34.339Z,3.40
2017-08-24T19:13:03.321Z,3.87
2017-08-24T19:15:31.854Z,3.87
2017-08-24T19:18:00.687Z,3.50
2017-08-24T19:20:29.354Z,3.57
2017-08-24T19:22:57.813Z,4.00
2017-08-24T19:27:58.889Z,4.20
2017-08-24T19:30:27.572Z,3.43
2017-08-24T19:32:56.172Z,4.33
2017-08-24T19:45:42.187Z,5.10
2017-08-24T19:56:28.040Z,3.30
2017-08-24T20:05:03.366Z,2.87
2017-08-24T20:07:33.195Z,3.63
2017-08-24T20:13:12.087Z,3.70
2017-08-24T20:15:42.563Z,2.77
2017-08-24T20:18:12.820Z,3.73
2017-08-24T20:20:45.567Z,3.87
2017-08-24T20:23:14.053Z,3.07
2017-08-24T20:25:43.146Z,3.40
2017-08-24T20:28:11.947Z,2.77
2017-08-24T20:30:44.702Z,3.00
2017-08-24T20:33:13.619Z,3.60
2017-08-24T20:35:42.194Z,3.53
2017-08-24T20:38:10.811Z,2.97
2017-08-24T20:40:39.334Z,2.83
2017-08-24T20:43:07.979Z,3.30
2017-08-24T20:45:36.417Z,3.20
2017-08-24T20:48:04.831Z,2.90
2017-08-24T20:50:33.422Z,3.40
2017-08-24T20:53:01.855Z,2.83
2017-08-24T20:55:30.212Z,3.20
2017-08-24T20:57:58.669Z,2.90
2017-08-24T21:00:27.093Z,2.83
2017-08-24T21:02:55.487Z,3.60
2017-08-24T21:05:24.326Z,3.37
2017-08-24T21:07:52.802Z,3.23
2017-08-24T21:10:22.984Z,3.43
2017-08-24T21:12:51.762Z,3.40
2017-08-24T21:15:20.234Z,3.80
2017-08-24T21:20:23.075Z,2.80
2017-08-24T21:22:51.734Z,3.00
2017-08-24T21:27:52.990Z,3.30
2017-08-24T21:30:22.037Z,3.90
2017-08-24T21:32:50.531Z,3.10
2017-08-24T21:35:19.134Z,2.30
2017-08-24T21:38:02.518Z,2.97
2017-08-24T21:40:36.830Z,2.50
2017-08-24T21:43:05.270Z,2.60
2017-08-24T21:45:34.263Z,2.60
2017-08-24T21:48:03.255Z,2.30
2017-08-24T21:50:31.779Z,2.80
2017-08-24T21:53:00.165Z,3.03
2017-08-24T21:55:28.698Z,2.63
2017-08-24T21:57:57.233Z,2.40
2017-08-24T22:00:25.698Z,2.97
2017-08-24T22:02:54.092Z,2.37
2017-08-24T22:05:22.540Z,2.23
2017-08-24T22:07:51.163Z,2.80
2017-08-24T22:10:19.929Z,1.80
2017-08-24T22:12:48.538Z,2.83
2017-08-24T22:15:18.989Z,2.93
2017-08-24T22:17:47.554Z,2.57
2017-08-24T22:20:16.086Z,2.57
2017-08-24T22:22:45.249Z,2.47
2017-08-24T22:25:14.122Z,2.17
2017-08-24T22:27:42.670Z,2.43
2017-08-24T22:30:11.738Z,2.27
2017-08-24T22:32:41.110Z,2.77
2017-08-24T22:35:10.815Z,2.50
2017-08-24T22:37:39.471Z,2.17
2017-08-24T22:40:07.886Z,2.80
2017-08-24T22:42:36.530Z,3.20
2017-08-24T22:45:04.993Z,2.27
2017-08-24T22:47:33.339Z,2.47
2017-08-24T22:50:01.677Z,2.43
2017-08-24T22:52:30.322Z,3.10
2017-08-24T22:58:21.645Z,2.67
2017-08-24T23:00:55.702Z,2.40
2017-08-24T23:03:29.611Z,2.73
2017-08-24T23:05:58.274Z,3.00
2017-08-24T23:08:27.052Z,2.63
2017-08-24T23:10:55.427Z,2.03
2017-08-24T23:13:23.765Z,3.13
2017-08-24T23:15:52.107Z,2.63
2017-08-24T23:18:20.835Z,3.00
2017-08-24T23:20:49.194Z,2.80
2017-08-24T23:23:17.494Z,2.70
2017-08-24T23:25:45.933Z,2.50
2017-08-24T23:28:14.336Z,2.70
2017-08-24T23:30:42.892Z,2.83
2017-08-24T23:33:11.417Z,2.30
2017-08-24T23:35:39.750Z,2.50
2017-08-24T23:38:08.191Z,2.63
2017-08-24T23:40:36.770Z,2.97
2017-08-24T23:43:05.533Z,3.43
2017-08-24T23:45:33.845Z,2.90
2017-08-24T23:48:02.478Z,3.20
2017-08-24T23:50:30.834Z,3.10
2017-08-24T23:52:59.183Z,3.70
2017-08-24T23:55:27.497Z,2.50
2017-08-24T23:57:56.771Z,2.90
